Time;durP1;ratioP1;P1;durP2;ratioP2;P2;SDS_P1;SDS_P2;PMS_P1;PMS_P2;Temp;Humidity;BMP_temperature;BMP_pressure;BME280_temperature;BME280_humidity;BME280_pressure;Samples;Min_cycle;Max_cycle;Signal;HPM_P1;HPM_P2
2022/06/09 00:00:30;;;;;;;7.60;3.93;;;18.60;99.90;;;;;;5232580;28;20206;-54
2022/06/09 00:03:05;;;;;;;3.30;3.20;;;18.80;99.90;;;;;;5205623;28;20517;-54
2022/06/09 00:05:37;;;;;;;4.80;3.73;;;18.80;99.90;;;;;;5197049;28;20442;-53
2022/06/09 00:08:09;;;;;;;3.30;3.10;;;18.80;99.90;;;;;;5206446;28;20439;-54
2022/06/09 00:10:49;;;;;;;4.73;3.13;;;18.80;99.90;;;;;;5201871;28;20473;-54
2022/06/09 00:13:21;;;;;;;7.63;3.50;;;18.80;99.90;;;;;;5197667;28;20430;-55
2022/06/09 00:15:51;;;;;;;4.33;3.50;;;18.80;99.90;;;;;;5207391;28;20470;-54
2022/06/09 00:18:22;;;;;;;3.97;3.77;;;18.80;99.90;;;;;;5208240;28;20981;-54
2022/06/09 00:20:53;;;;;;;6.27;3.47;;;18.80;99.90;;;;;;5207042;28;20201;-53
2022/06/09 00:23:24;;;;;;;3.57;3.37;;;18.80;99.90;;;;;;5204316;28;20433;-54
2022/06/09 00:25:54;;;;;;;2.67;2.47;;;18.90;99.90;;;;;;5237283;28;20190;-57
2022/06/09 00:28:25;;;;;;;2.77;2.67;;;19.00;99.90;;;;;;5232590;28;20655;-53
2022/06/09 00:30:56;;;;;;;3.13;3.00;;;19.10;99.90;;;;;;5190933;28;20560;-53
2022/06/09 00:33:27;;;;;;;3.13;3.03;;;19.10;99.90;;;;;;5235885;28;20342;-55
2022/06/09 00:35:57;;;;;;;3.57;3.30;;;19.00;99.90;;;;;;5206156;28;20194;-55
2022/06/09 00:38:28;;;;;;;3.90;3.70;;;19.00;99.90;;;;;;5206186;28;20208;-54
2022/06/09 00:40:59;;;;;;;3.40;3.20;;;19.00;99.90;;;;;;5196545;28;20199;-55
2022/06/09 00:43:31;;;;;;;3.90;3.60;;;19.00;99.90;;;;;;5201118;28;20176;-53
2022/06/09 00:46:16;;;;;;;6.50;3.80;;;19.00;99.90;;;;;;5227187;28;20431;-54
2022/06/09 00:49:06;;;;;;;3.70;2.77;;;19.10;99.90;;;;;;5200018;28;21046;-55
2022/06/09 00:51:44;;;;;;;4.17;2.67;;;19.10;99.90;;;;;;5205479;28;20453;-54
2022/06/09 00:54:20;;;;;;;3.30;2.40;;;19.20;99.90;;;;;;5206402;28;20466;-55
2022/06/09 00:57:14;;;;;;;3.60;3.30;;;19.20;99.90;;;;;;5201679;28;20822;-55
2022/06/09 00:59:50;;;;;;;2.47;2.37;;;19.20;99.90;;;;;;5230856;28;20453;-54
2022/06/09 01:02:21;;;;;;;2.20;2.03;;;19.20;99.90;;;;;;5233152;28;20433;-54
2022/06/09 01:04:53;;;;;;;2.63;2.30;;;19.20;99.90;;;;;;5204257;28;20449;-54
2022/06/09 01:07:31;;;;;;;2.73;2.60;;;19.10;99.90;;;;;;5237279;28;20442;-54
2022/06/09 01:10:04;;;;;;;2.77;2.60;;;19.10;99.90;;;;;;5235469;28;20462;-54
2022/06/09 01:12:40;;;;;;;2.30;2.20;;;19.10;99.90;;;;;;5202644;28;20532;-55
2022/06/09 01:15:21;;;;;;;3.00;2.80;;;19.00;99.90;;;;;;5231615;28;20960;-54
2022/06/09 01:18:16;;;;;;;2.80;2.70;;;19.00;99.90;;;;;;5195973;28;20442;-53
2022/06/09 01:20:58;;;;;;;7.70;2.40;;;19.00;99.90;;;;;;5188881;28;20454;-54
2022/06/09 01:23:59;;;;;;;3.60;2.60;;;18.90;99.90;;;;;;5200226;28;20826;-56
2022/06/09 01:26:49;;;;;;;2.40;2.30;;;18.80;99.90;;;;;;5232469;28;20445;-54
2022/06/09 01:29:44;;;;;;;2.13;2.03;;;18.80;99.90;;;;;;5205726;28;21263;-54
2022/06/09 01:32:30;;;;;;;2.50;2.30;;;18.70;99.90;;;;;;5229122;28;20422;-55
2022/06/09 01:35:19;;;;;;;1.93;1.93;;;18.70;99.90;;;;;;5196079;28;20470;-55
2022/06/09 01:37:56;;;;;;;2.37;2.20;;;18.60;99.90;;;;;;5200860;28;20422;-54
2022/06/09 01:40:28;;;;;;;2.33;2.20;;;18.50;99.90;;;;;;5207363;28;20450;-53
2022/06/09 01:42:59;;;;;;;2.20;2.00;;;18.50;99.90;;;;;;5209200;28;20873;-54
2022/06/09 01:45:32;;;;;;;2.13;2.03;;;18.40;99.90;;;;;;5209243;28;20525;-53
2022/06/09 01:48:10;;;;;;;1.97;1.87;;;18.40;99.90;;;;;;5202836;28;20184;-53
2022/06/09 01:50:47;;;;;;;2.10;1.90;;;18.40;99.90;;;;;;5208145;28;20458;-53
2022/06/09 01:53:25;;;;;;;2.23;2.07;;;18.30;99.90;;;;;;5198479;28;20875;-56
2022/06/09 01:56:03;;;;;;;2.73;2.50;;;18.40;99.90;;;;;;5204235;28;20469;-57
2022/06/09 01:58:43;;;;;;;2.00;1.73;;;18.30;99.90;;;;;;5206272;28;20483;-53
2022/06/09 02:01:17;;;;;;;2.27;2.17;;;18.20;99.90;;;;;;5201357;28;20454;-54
2022/06/09 02:03:52;;;;;;;1.97;1.87;;;18.20;99.90;;;;;;5209353;28;20535;-54
2022/06/09 02:06:24;;;;;;;3.20;2.10;;;18.20;99.90;;;;;;5205461;28;20559;-53
2022/06/09 02:08:55;;;;;;;1.80;1.70;;;18.20;99.90;;;;;;5204804;28;20434;-54
2022/06/09 02:11:27;;;;;;;4.10;2.40;;;18.20;99.90;;;;;;5205829;28;21511;-54
2022/06/09 02:13:59;;;;;;;2.70;1.67;;;18.20;99.90;;;;;;5203137;28;20468;-55
2022/06/09 02:16:29;;;;;;;1.90;1.80;;;18.10;99.90;;;;;;5198732;28;20575;-53
2022/06/09 02:19:00;;;;;;;2.40;2.20;;;18.00;99.90;;;;;;5195975;28;20520;-54
2022/06/09 02:21:34;;;;;;;1.97;1.87;;;18.10;99.90;;;;;;5207761;28;20175;-54
2022/06/09 02:24:05;;;;;;;2.90;2.10;;;18.10;99.90;;;;;;5207257;28;20190;-54
2022/06/09 02:26:36;;;;;;;2.10;1.90;;;18.10;99.90;;;;;;5205415;28;20477;-54
2022/06/09 02:29:06;;;;;;;2.03;1.93;;;18.10;99.90;;;;;;5208532;28;20446;-54
2022/06/09 02:31:37;;;;;;;1.77;1.77;;;18.10;99.90;;;;;;5209935;28;20196;-54
2022/06/09 02:34:09;;;;;;;4.67;1.80;;;18.10;99.90;;;;;;5198069;28;20215;-56
2022/06/09 02:36:40;;;;;;;1.60;1.50;;;18.00;99.90;;;;;;5206074;28;20218;-54
2022/06/09 02:39:10;;;;;;;1.70;1.60;;;18.00;99.90;;;;;;5203610;28;21001;-54
2022/06/09 02:41:41;;;;;;;1.37;1.33;;;18.00;99.90;;;;;;5236857;28;20179;-54
2022/06/09 02:44:11;;;;;;;1.70;1.60;;;18.00;99.90;;;;;;5208518;28;20246;-59
2022/06/09 02:46:43;;;;;;;1.90;1.80;;;17.90;99.90;;;;;;5195079;28;20238;-54
2022/06/09 02:49:14;;;;;;;1.10;1.10;;;17.90;99.90;;;;;;5238582;28;20246;-53
2022/06/09 02:51:45;;;;;;;1.80;1.73;;;17.90;99.90;;;;;;5196407;28;20443;-57
2022/06/09 02:54:16;;;;;;;1.87;1.77;;;17.80;99.90;;;;;;5207467;28;20511;-54
2022/06/09 02:56:47;;;;;;;1.83;1.83;;;17.80;99.90;;;;;;5203384;28;20664;-55
2022/06/09 02:59:18;;;;;;;1.60;1.50;;;17.80;99.90;;;;;;5207622;28;20200;-56
2022/06/09 03:01:49;;;;;;;1.30;1.30;;;17.80;99.90;;;;;;5204616;28;20435;-54
2022/06/09 03:04:19;;;;;;;4.30;1.97;;;17.70;99.90;;;;;;5202425;28;20449;-54
2022/06/09 03:06:50;;;;;;;1.53;1.43;;;17.60;99.90;;;;;;5198828;28;20662;-53
2022/06/09 03:09:20;;;;;;;1.43;1.43;;;17.60;99.90;;;;;;5199436;28;20569;-53
2022/06/09 03:11:51;;;;;;;3.00;2.20;;;17.60;99.90;;;;;;5201408;28;20246;-53
2022/06/09 03:14:22;;;;;;;6.10;1.70;;;17.50;99.90;;;;;;5200060;28;20195;-54
2022/06/09 03:16:52;;;;;;;1.60;1.50;;;17.50;99.90;;;;;;5222927;28;20176;-54
2022/06/09 03:19:23;;;;;;;1.67;1.57;;;17.40;99.90;;;;;;5203918;28;20254;-54
2022/06/09 03:21:54;;;;;;;1.90;1.80;;;17.30;99.90;;;;;;5204423;28;20187;-54
2022/06/09 03:24:24;;;;;;;2.30;1.90;;;17.30;99.90;;;;;;5200515;28;20188;-54
2022/06/09 03:26:55;;;;;;;1.67;1.57;;;17.30;99.90;;;;;;5203043;28;20180;-53
2022/06/09 03:29:26;;;;;;;2.03;1.93;;;17.30;99.90;;;;;;5203586;28;20199;-53
2022/06/09 03:31:57;;;;;;;4.43;1.97;;;17.30;99.90;;;;;;5214098;28;20433;-55
2022/06/09 03:34:27;;;;;;;2.63;1.43;;;17.20;99.90;;;;;;5238299;28;20243;-54
2022/06/09 03:36:58;;;;;;;1.50;1.50;;;17.20;99.90;;;;;;5228299;28;20183;-53
2022/06/09 03:39:28;;;;;;;2.00;1.97;;;17.20;99.90;;;;;;5206169;28;20322;-53
2022/06/09 03:41:59;;;;;;;1.70;1.60;;;17.20;99.90;;;;;;5234339;28;20282;-53
2022/06/09 03:44:29;;;;;;;3.40;2.00;;;17.20;99.90;;;;;;5199950;28;20219;-55
2022/06/09 03:47:00;;;;;;;2.50;1.30;;;17.20;99.90;;;;;;5238808;28;20184;-54
2022/06/09 03:49:31;;;;;;;1.57;1.47;;;17.20;99.90;;;;;;5205899;28;20216;-53
2022/06/09 03:52:01;;;;;;;3.50;2.10;;;17.20;99.90;;;;;;5200925;28;20279;-54
2022/06/09 03:54:32;;;;;;;1.70;1.50;;;17.30;99.90;;;;;;5202991;28;20235;-54
2022/06/09 03:57:03;;;;;;;1.50;1.40;;;17.30;99.90;;;;;;5201256;28;20568;-55
2022/06/09 03:59:34;;;;;;;2.17;1.90;;;17.30;99.90;;;;;;5206172;28;20206;-53
2022/06/09 04:02:05;;;;;;;2.10;1.93;;;17.40;99.90;;;;;;5202042;28;20418;-53
2022/06/09 04:04:35;;;;;;;3.33;1.63;;;17.40;99.90;;;;;;5198199;28;20203;-55
2022/06/09 04:07:06;;;;;;;2.77;1.93;;;17.50;99.90;;;;;;5195903;28;20195;-54
2022/06/09 04:09:37;;;;;;;2.07;1.80;;;17.50;99.90;;;;;;5201261;28;20767;-53
2022/06/09 04:12:08;;;;;;;1.50;1.50;;;17.60;99.90;;;;;;5202570;28;20268;-53
2022/06/09 04:14:38;;;;;;;5.93;1.47;;;17.60;99.90;;;;;;5204012;28;20508;-53
2022/06/09 04:17:11;;;;;;;1.67;1.57;;;17.70;99.90;;;;;;5204642;28;20195;-55
2022/06/09 04:19:42;;;;;;;2.50;2.40;;;17.80;99.90;;;;;;5201405;28;20628;-53
2022/06/09 04:22:12;;;;;;;1.70;1.50;;;17.90;99.90;;;;;;5198266;28;20434;-53
2022/06/09 04:24:43;;;;;;;2.17;1.90;;;18.00;99.90;;;;;;5196183;28;20668;-54
2022/06/09 04:27:13;;;;;;;4.53;1.90;;;18.10;99.90;;;;;;5199957;28;20192;-55
2022/06/09 04:29:44;;;;;;;7.90;2.13;;;18.20;99.90;;;;;;5198177;28;20619;-53
2022/06/09 04:32:15;;;;;;;2.33;1.93;;;18.40;99.90;;;;;;5205414;28;20182;-54
2022/06/09 04:34:45;;;;;;;3.47;2.40;;;18.60;99.90;;;;;;5232239;28;20223;-54
2022/06/09 04:37:16;;;;;;;2.07;1.97;;;18.70;99.90;;;;;;5205384;28;20274;-54
2022/06/09 04:39:46;;;;;;;5.40;1.13;;;19.00;99.90;;;;;;5204289;28;20207;-54
2022/06/09 04:42:17;;;;;;;3.40;1.80;;;19.20;99.90;;;;;;5200361;28;20176;-55
2022/06/09 04:44:47;;;;;;;1.40;1.30;;;19.20;99.90;;;;;;5201825;28;20176;-54
2022/06/09 04:47:18;;;;;;;2.00;1.80;;;19.50;99.90;;;;;;5199193;28;20653;-54
2022/06/09 04:49:49;;;;;;;2.43;1.40;;;20.00;99.90;;;;;;5192747;28;20215;-56
2022/06/09 04:52:19;;;;;;;2.33;2.10;;;20.10;99.90;;;;;;5201326;28;20215;-54
2022/06/09 04:54:50;;;;;;;3.77;2.30;;;20.60;99.90;;;;;;5199419;28;20211;-54
2022/06/09 04:57:20;;;;;;;2.97;2.03;;;20.60;99.90;;;;;;5218257;28;20191;-55
2022/06/09 04:59:51;;;;;;;1.33;1.33;;;21.00;99.90;;;;;;5203911;28;20354;-55
2022/06/09 05:02:22;;;;;;;2.07;1.97;;;21.70;99.90;;;;;;5198704;28;20175;-54
2022/06/09 05:04:52;;;;;;;1.60;1.50;;;22.50;96.20;;;;;;5205132;28;20194;-55
2022/06/09 05:07:23;;;;;;;3.43;1.77;;;23.60;91.60;;;;;;5205244;28;20197;-54
2022/06/09 05:09:54;;;;;;;3.57;2.53;;;25.00;80.00;;;;;;5203854;28;20203;-55
2022/06/09 05:12:25;;;;;;;3.33;1.50;;;26.60;67.40;;;;;;5201888;28;20520;-55
2022/06/09 05:14:55;;;;;;;2.20;1.37;;;27.60;56.60;;;;;;5202583;28;20454;-55
2022/06/09 05:17:26;;;;;;;2.20;1.30;;;27.60;53.90;;;;;;5202661;28;20628;-57
2022/06/09 05:19:57;;;;;;;1.27;1.27;;;27.90;52.20;;;;;;5198670;28;20215;-54
2022/06/09 05:22:27;;;;;;;2.23;1.60;;;27.50;51.00;;;;;;5226116;28;20644;-55
2022/06/09 05:24:59;;;;;;;0.80;0.80;;;27.00;52.40;;;;;;5206348;28;20188;-54
2022/06/09 05:27:30;;;;;;;1.67;1.57;;;27.80;50.90;;;;;;5202316;28;20188;-54
2022/06/09 05:30:00;;;;;;;3.70;1.13;;;27.80;50.30;;;;;;5203636;28;20485;-55
2022/06/09 05:32:31;;;;;;;1.00;0.90;;;26.70;51.30;;;;;;5204249;28;20192;-55
2022/06/09 05:35:01;;;;;;;2.90;1.77;;;25.40;54.20;;;;;;5197287;28;20230;-55
2022/06/09 05:46:06;;;;;;;1.23;1.23;;;21.50;66.80;;;;;;5200007;28;20441;-54
2022/06/09 05:48:37;;;;;;;2.23;1.30;;;21.20;70.90;;;;;;5230280;28;20536;-55
2022/06/09 05:51:08;;;;;;;1.50;1.37;;;21.00;74.00;;;;;;5259545;23;20526;-56
2022/06/09 05:53:39;;;;;;;6.53;1.67;;;20.80;78.00;;;;;;5229586;28;20179;-55
2022/06/09 05:56:10;;;;;;;4.00;1.30;;;20.60;82.00;;;;;;5221244;28;20453;-55
2022/06/09 05:58:40;;;;;;;1.53;1.43;;;20.50;85.40;;;;;;5221924;28;20187;-55
2022/06/09 06:01:12;;;;;;;1.40;1.30;;;20.50;88.20;;;;;;5205746;28;20461;-53
2022/06/09 06:03:44;;;;;;;2.40;1.83;;;20.40;90.20;;;;;;5222871;28;20240;-55
2022/06/09 06:09:09;;;;;;;1.47;1.20;;;20.30;92.50;;;;;;5211657;28;20492;-54
2022/06/09 06:11:40;;;;;;;1.27;1.20;;;20.20;93.50;;;;;;5214750;28;20436;-52
2022/06/09 06:14:11;;;;;;;2.10;1.40;;;20.30;94.20;;;;;;5225428;28;20526;-54
2022/06/09 06:16:42;;;;;;;1.10;1.10;;;20.40;93.30;;;;;;5226225;28;20609;-55
2022/06/09 06:19:16;;;;;;;1.70;1.20;;;20.50;93.00;;;;;;5227624;28;20464;-54
2022/06/09 06:21:48;;;;;;;3.00;1.23;;;20.30;93.50;;;;;;5216319;28;20558;-52
2022/06/09 06:24:21;;;;;;;1.30;0.73;;;20.40;93.50;;;;;;5222625;28;20438;-55
2022/06/09 06:26:52;;;;;;;1.70;1.60;;;20.50;94.00;;;;;;5223237;28;20773;-55
2022/06/09 06:29:25;;;;;;;2.77;1.70;;;20.70;93.80;;;;;;5222004;28;20562;-55
2022/06/09 06:31:55;;;;;;;2.50;1.60;;;20.90;93.60;;;;;;5227966;28;20477;-54
2022/06/09 06:34:26;;;;;;;3.70;1.07;;;20.90;93.20;;;;;;5225490;28;20496;-55
2022/06/09 06:36:56;;;;;;;9.40;1.30;;;20.90;93.00;;;;;;5219583;28;20183;-54
2022/06/09 06:39:27;;;;;;;0.80;0.80;;;20.70;93.00;;;;;;5221708;28;20176;-54
2022/06/09 06:41:58;;;;;;;1.33;1.33;;;20.60;93.60;;;;;;5224437;28;20298;-55
2022/06/09 06:44:28;;;;;;;1.80;1.17;;;20.90;94.10;;;;;;5222145;28;20626;-54
2022/06/09 06:46:59;;;;;;;1.23;1.00;;;21.90;92.70;;;;;;5225871;28;20186;-55
2022/06/09 06:49:29;;;;;;;6.37;1.07;;;24.30;84.60;;;;;;5226109;28;20187;-53
2022/06/09 06:52:00;;;;;;;2.87;0.90;;;26.60;65.20;;;;;;5216682;28;20221;-55
2022/06/09 06:54:31;;;;;;;1.30;1.20;;;27.50;58.40;;;;;;5221735;28;20226;-57
2022/06/09 06:57:05;;;;;;;1.20;1.10;;;27.50;55.20;;;;;;5214898;28;20547;-56
2022/06/09 06:59:35;;;;;;;2.90;1.23;;;26.70;55.50;;;;;;5227330;28;20182;-57
2022/06/09 07:02:06;;;;;;;3.57;1.10;;;26.00;56.60;;;;;;5217080;28;20460;-55
2022/06/09 07:04:37;;;;;;;3.77;1.37;;;26.00;58.50;;;;;;5209787;28;20273;-54
2022/06/09 07:07:07;;;;;;;7.30;1.97;;;28.40;53.50;;;;;;5226765;28;20187;-56
2022/06/09 07:09:38;;;;;;;0.90;0.90;;;30.00;48.60;;;;;;5221874;28;20190;-54
2022/06/09 07:12:09;;;;;;;1.00;1.00;;;29.40;47.30;;;;;;5216355;28;20711;-53
2022/06/09 07:14:40;;;;;;;1.60;1.27;;;28.60;48.70;;;;;;5227533;28;20202;-54
2022/06/09 07:17:11;;;;;;;0.93;0.80;;;27.70;50.00;;;;;;5220203;28;20487;-56
2022/06/09 07:19:41;;;;;;;0.77;0.77;;;26.90;51.40;;;;;;5224342;28;20715;-55
2022/06/09 07:22:12;;;;;;;0.80;0.80;;;25.50;53.70;;;;;;5215939;28;20214;-56
2022/06/09 07:24:43;;;;;;;0.90;0.90;;;24.20;56.80;;;;;;5226068;28;20185;-55
2022/06/09 07:27:14;;;;;;;2.10;2.00;;;23.70;58.90;;;;;;5218505;28;20264;-54
2022/06/09 07:29:44;;;;;;;4.17;1.67;;;23.30;59.90;;;;;;5226650;28;20647;-53
2022/06/09 07:32:16;;;;;;;3.37;1.30;;;23.10;61.00;;;;;;5226363;28;20456;-54
2022/06/09 07:34:46;;;;;;;2.03;1.83;;;22.70;62.50;;;;;;5225813;28;20210;-56
2022/06/09 07:37:17;;;;;;;2.73;2.07;;;22.50;64.40;;;;;;5227134;28;20800;-55
2022/06/09 07:39:48;;;;;;;1.73;1.47;;;22.30;65.80;;;;;;5225591;28;20179;-55
2022/06/09 07:42:19;;;;;;;1.83;1.73;;;22.20;66.60;;;;;;5225940;28;20562;-53
2022/06/09 07:44:49;;;;;;;1.80;1.63;;;21.90;68.20;;;;;;5227538;28;20186;-53
2022/06/09 07:47:20;;;;;;;1.93;1.27;;;21.70;69.70;;;;;;5219348;28;20654;-54
2022/06/09 07:49:51;;;;;;;1.80;1.40;;;21.60;71.60;;;;;;5225866;28;20187;-54
2022/06/09 07:52:21;;;;;;;1.60;1.50;;;21.40;73.50;;;;;;5223739;28;20218;-52
2022/06/09 07:54:52;;;;;;;4.67;1.83;;;21.00;77.50;;;;;;5225002;28;20461;-54
2022/06/09 07:57:23;;;;;;;3.80;1.47;;;20.80;81.50;;;;;;5216142;28;20262;-54
2022/06/09 07:59:53;;;;;;;2.67;1.90;;;20.70;85.60;;;;;;5224908;28;20190;-54
2022/06/09 08:02:24;;;;;;;5.30;1.50;;;20.60;89.00;;;;;;5216288;28;20282;-53
2022/06/09 08:04:54;;;;;;;1.17;1.17;;;20.50;90.80;;;;;;5227312;28;20187;-53
2022/06/09 08:07:25;;;;;;;3.57;1.57;;;20.40;92.10;;;;;;5213672;28;20192;-53
2022/06/09 08:09:56;;;;;;;1.67;1.57;;;20.50;92.70;;;;;;5221742;28;20183;-54
2022/06/09 08:12:26;;;;;;;1.57;1.47;;;20.60;92.80;;;;;;5220359;28;20298;-55
2022/06/09 08:14:57;;;;;;;1.67;1.57;;;20.70;93.00;;;;;;5223320;28;20206;-54
2022/06/09 08:17:28;;;;;;;1.60;1.60;;;20.70;93.20;;;;;;5218849;28;20734;-53
2022/06/09 08:19:58;;;;;;;2.40;1.40;;;20.80;93.20;;;;;;5214395;28;20590;-52
2022/06/09 08:22:29;;;;;;;2.50;1.80;;;20.90;93.00;;;;;;5213608;28;20235;-52
2022/06/09 08:24:59;;;;;;;3.23;1.73;;;20.90;93.40;;;;;;5215669;28;20180;-54
2022/06/09 08:27:30;;;;;;;4.43;2.30;;;20.80;93.70;;;;;;5213288;28;20666;-53
2022/06/09 08:30:01;;;;;;;2.63;1.93;;;20.80;94.30;;;;;;5225775;28;20253;-54
2022/06/09 08:32:32;;;;;;;2.20;2.10;;;20.50;95.30;;;;;;5220905;28;20203;-53
2022/06/09 08:35:05;;;;;;;1.53;1.43;;;20.20;97.10;;;;;;5217311;28;20241;-52
2022/06/09 08:37:35;;;;;;;1.70;1.60;;;19.90;99.00;;;;;;5222894;28;20812;-51
2022/06/09 08:40:07;;;;;;;2.47;1.77;;;19.80;99.90;;;;;;5217571;28;20433;-52
2022/06/09 08:43:04;;;;;;;1.50;1.40;;;19.70;99.90;;;;;;5220983;28;20204;-52
2022/06/09 08:45:37;;;;;;;1.77;1.67;;;19.70;99.90;;;;;;5213542;28;20630;-52
2022/06/09 08:48:20;;;;;;;1.93;1.83;;;19.60;99.90;;;;;;5221161;28;20452;-52
2022/06/09 08:51:01;;;;;;;3.73;1.53;;;19.60;99.90;;;;;;5217907;28;20432;-52
2022/06/09 08:53:49;;;;;;;2.30;1.40;;;19.50;99.90;;;;;;5225198;28;20429;-53
2022/06/09 08:56:26;;;;;;;2.60;1.83;;;19.30;99.90;;;;;;5223997;28;20455;-51
2022/06/09 08:59:12;;;;;;;1.37;1.37;;;19.10;99.90;;;;;;5213564;28;20883;-52
2022/06/09 09:01:51;;;;;;;3.10;2.30;;;18.80;99.90;;;;;;5223831;28;20526;-53
2022/06/09 09:04:51;;;;;;;1.93;1.80;;;18.60;99.90;;;;;;5223843;28;20574;-52
2022/06/09 09:07:26;;;;;;;5.00;3.70;;;18.60;99.90;;;;;;5216118;28;20456;-51
2022/06/09 09:10:07;;;;;;;4.10;2.13;;;18.60;99.90;;;;;;5217819;28;20426;-51
2022/06/09 09:12:44;;;;;;;2.10;2.00;;;18.50;99.90;;;;;;5223988;28;20452;-52
2022/06/09 09:15:37;;;;;;;1.70;1.63;;;18.60;99.90;;;;;;5222543;28;20594;-52
2022/06/09 09:18:45;;;;;;;3.20;2.37;;;18.60;99.90;;;;;;5214138;28;20929;-52
2022/06/09 09:21:28;;;;;;;3.00;2.40;;;18.70;99.90;;;;;;5211186;28;20441;-52
2022/06/09 09:24:28;;;;;;;5.93;2.60;;;18.70;99.90;;;;;;5221190;28;20429;-52
2022/06/09 09:27:25;;;;;;;9.53;2.67;;;18.90;99.90;;;;;;5210728;28;20487;-52
2022/06/09 09:30:17;;;;;;;3.17;2.87;;;19.00;99.90;;;;;;5216608;28;20414;-52
2022/06/09 09:32:54;;;;;;;3.73;2.50;;;19.10;99.90;;;;;;5208113;28;20834;-52
2022/06/09 09:35:31;;;;;;;3.30;2.10;;;19.20;99.90;;;;;;5206694;28;20488;-53
2022/06/09 09:38:02;;;;;;;5.20;2.07;;;19.30;99.90;;;;;;5217425;28;20432;-52
2022/06/09 09:40:48;;;;;;;5.90;2.73;;;19.40;99.90;;;;;;5214956;28;20591;-52
2022/06/09 09:43:24;;;;;;;21.43;3.43;;;19.50;99.90;;;;;;5215152;28;20433;-52
2022/06/09 09:45:56;;;;;;;4.27;2.53;;;19.60;99.90;;;;;;5221689;28;20425;-53
2022/06/09 09:48:42;;;;;;;3.03;2.70;;;19.50;99.90;;;;;;5221021;28;20971;-53
2022/06/09 09:51:13;;;;;;;4.63;3.20;;;19.50;99.90;;;;;;5213894;28;20458;-53
2022/06/09 09:53:47;;;;;;;7.43;3.73;;;19.70;99.90;;;;;;5232329;28;20433;-53
2022/06/09 09:56:17;;;;;;;3.93;2.77;;;19.80;99.90;;;;;;5227731;28;20210;-53
2022/06/09 09:58:48;;;;;;;11.03;3.43;;;19.90;99.90;;;;;;5224539;28;21001;-54
2022/06/09 10:01:24;;;;;;;10.40;3.20;;;19.90;99.90;;;;;;5221923;28;20215;-54
2022/06/09 10:10:16;;;;;;;9.37;6.83;;;20.30;99.90;;;;;;5228406;28;20524;-53
2022/06/09 10:12:47;;;;;;;9.90;6.50;;;20.40;99.90;;;;;;5224928;28;20478;-53
2022/06/09 10:15:20;;;;;;;5.97;4.00;;;20.50;99.90;;;;;;5226921;28;21003;-53
2022/06/09 10:18:03;;;;;;;2.30;2.20;;;20.60;99.90;;;;;;5224874;28;20616;-52
2022/06/09 10:20:43;;;;;;;2.07;1.97;;;20.70;99.90;;;;;;5206557;28;20434;-53
2022/06/09 10:23:16;;;;;;;3.17;2.83;;;20.50;99.90;;;;;;5215335;28;20532;-52
2022/06/09 10:26:19;;;;;;;2.07;1.97;;;20.60;99.90;;;;;;5217121;28;20840;-53
2022/06/09 10:29:20;;;;;;;2.70;2.10;;;20.60;99.90;;;;;;5210634;28;20430;-53
2022/06/09 10:32:03;;;;;;;2.30;2.10;;;20.70;99.90;;;;;;5218464;28;20677;-52
2022/06/09 10:35:01;;;;;;;7.70;2.27;;;20.90;99.90;;;;;;5226056;28;20539;-54
2022/06/09 10:37:59;;;;;;;13.87;7.70;;;21.20;99.90;;;;;;5217272;28;20423;-54
2022/06/09 10:40:44;;;;;;;5.80;4.00;;;21.80;99.90;;;;;;5216982;28;20429;-54
2022/06/09 10:43:30;;;;;;;6.07;2.70;;;22.10;99.90;;;;;;5221500;28;20457;-53
2022/06/09 10:46:30;;;;;;;2.60;2.50;;;22.10;99.90;;;;;;5237375;28;20437;-52
2022/06/09 10:55:38;;;;;;;5.03;4.00;;;22.30;97.80;;;;;;5218798;28;20570;-52
2022/06/09 10:58:11;;;;;;;8.00;4.07;;;22.20;97.00;;;;;;5214029;28;20763;-53
2022/06/09 11:00:46;;;;;;;2.90;2.70;;;22.10;95.70;;;;;;5214411;28;20763;-53
2022/06/09 11:03:35;;;;;;;4.80;4.10;;;22.00;95.20;;;;;;5228599;28;20951;-53
2022/06/09 11:06:06;;;;;;;5.00;4.50;;;21.90;95.20;;;;;;5223623;28;20436;-53
2022/06/09 11:09:20;;;;;;;4.87;4.47;;;21.90;95.50;;;;;;5215448;28;20433;-53
2022/06/09 11:11:56;;;;;;;31.63;18.93;;;21.90;95.70;;;;;;5217272;28;20347;-54
2022/06/09 11:14:51;;;;;;;15.73;9.27;;;21.70;95.30;;;;;;5223453;28;20495;-54
2022/06/09 11:17:22;;;;;;;19.13;12.20;;;21.60;95.70;;;;;;5205515;28;20946;-54
2022/06/09 11:20:11;;;;;;;5.37;4.43;;;21.50;96.00;;;;;;5223696;28;20470;-55
2022/06/09 11:23:28;;;;;;;6.90;5.23;;;21.40;96.20;;;;;;5216381;28;20594;-54
2022/06/09 11:26:09;;;;;;;25.30;14.90;;;21.30;96.60;;;;;;5220617;28;20520;-53
2022/06/09 11:28:45;;;;;;;17.70;9.07;;;21.30;96.80;;;;;;5225368;28;20936;-52
2022/06/09 11:31:25;;;;;;;18.90;10.30;;;21.30;97.50;;;;;;5218945;28;20465;-54
2022/06/09 11:34:13;;;;;;;14.13;8.93;;;21.40;97.40;;;;;;5222415;28;20572;-52
2022/06/09 11:37:31;;;;;;;25.87;12.50;;;21.40;96.80;;;;;;5225868;28;20465;-55
2022/06/09 11:40:32;;;;;;;12.60;8.73;;;21.10;97.20;;;;;;5226687;28;20517;-52
2022/06/09 11:43:39;;;;;;;11.17;6.17;;;21.00;97.50;;;;;;5226083;28;20457;-52
2022/06/09 11:46:20;;;;;;;3.47;3.20;;;20.80;98.50;;;;;;5221913;28;20440;-52
2022/06/09 11:48:58;;;;;;;3.40;3.20;;;20.90;98.80;;;;;;5222819;28;20928;-52
2022/06/09 11:51:31;;;;;;;9.03;4.80;;;20.90;98.90;;;;;;5241089;22;21113;-56
2022/06/09 11:54:08;;;;;;;6.30;3.27;;;21.00;99.10;;;;;;5180699;28;20447;-56
2022/06/09 11:56:40;;;;;;;7.40;2.80;;;21.00;98.90;;;;;;5175894;28;20470;-56
2022/06/09 11:59:11;;;;;;;5.13;3.10;;;21.10;99.10;;;;;;5177130;28;20563;-55
2022/06/09 12:02:06;;;;;;;15.23;8.50;;;21.20;99.10;;;;;;5185728;28;20565;-56
2022/06/09 12:04:55;;;;;;;4.67;4.27;;;21.20;98.70;;;;;;5164204;28;20278;-56
2022/06/09 12:07:48;;;;;;;4.33;3.20;;;21.30;97.00;;;;;;5178953;28;20439;-56
2022/06/09 12:10:54;;;;;;;8.33;5.10;;;21.40;96.60;;;;;;5169898;28;20924;-56
2022/06/09 12:13:35;;;;;;;5.20;4.30;;;21.50;96.10;;;;;;5162732;28;20469;-56
2022/06/09 12:16:25;;;;;;;3.67;3.40;;;21.50;95.60;;;;;;5180391;28;20562;-55
2022/06/09 12:19:14;;;;;;;19.50;8.40;;;21.20;95.00;;;;;;5179395;28;20462;-56
2022/06/09 12:21:54;;;;;;;4.90;3.97;;;21.10;95.50;;;;;;5181154;28;20538;-56
2022/06/09 12:24:56;;;;;;;3.37;3.20;;;21.20;96.20;;;;;;5173781;28;20830;-55
2022/06/09 12:27:36;;;;;;;5.40;3.33;;;21.30;96.70;;;;;;5183897;28;20569;-55
2022/06/09 12:30:25;;;;;;;8.30;6.43;;;21.30;97.20;;;;;;5183980;28;20949;-56
2022/06/09 12:33:11;;;;;;;4.00;3.73;;;21.30;96.70;;;;;;5184838;28;20489;-56
2022/06/09 12:36:02;;;;;;;2.83;2.47;;;21.30;97.30;;;;;;5179581;28;20546;-56
2022/06/09 12:38:40;;;;;;;3.70;3.50;;;21.40;97.30;;;;;;5168653;28;20424;-56
2022/06/09 12:41:20;;;;;;;25.53;14.03;;;21.50;97.30;;;;;;5173569;28;20514;-56
2022/06/09 12:44:15;;;;;;;19.53;10.47;;;21.60;97.10;;;;;;5180881;28;20998;-57
2022/06/09 12:46:53;;;;;;;22.13;5.10;;;21.70;96.90;;;;;;5179407;28;20467;-56
2022/06/09 12:49:35;;;;;;;4.67;3.23;;;21.70;95.50;;;;;;5180413;28;20827;-56
2022/06/09 12:52:24;;;;;;;3.10;2.83;;;21.70;94.70;;;;;;5176716;28;20499;-55
2022/06/09 12:54:57;;;;;;;6.20;3.23;;;21.60;93.90;;;;;;5172951;28;20975;-56
2022/06/09 12:57:33;;;;;;;3.73;3.37;;;21.60;94.20;;;;;;5177177;28;20435;-55
2022/06/09 13:00:18;;;;;;;8.03;3.43;;;21.50;94.40;;;;;;5182474;28;20425;-56
2022/06/09 13:02:49;;;;;;;4.20;3.80;;;21.40;94.70;;;;;;5180207;28;20466;-56
2022/06/09 13:05:22;;;;;;;12.30;7.70;;;21.20;95.70;;;;;;5187398;28;20451;-56
2022/06/09 13:07:53;;;;;;;15.67;9.37;;;21.10;96.40;;;;;;5185991;28;20847;-55
2022/06/09 13:10:31;;;;;;;4.37;3.90;;;20.90;98.40;;;;;;5184899;28;20487;-56
2022/06/09 13:13:12;;;;;;;6.13;4.20;;;20.60;99.90;;;;;;5180705;28;20203;-55
2022/06/09 13:15:57;;;;;;;3.80;3.60;;;20.40;99.90;;;;;;5173146;28;20951;-56
2022/06/09 13:18:41;;;;;;;9.03;5.13;;;20.20;99.90;;;;;;5180718;28;20432;-55
2022/06/09 13:21:20;;;;;;;5.60;4.13;;;20.20;99.90;;;;;;5182445;28;20445;-55
2022/06/09 13:23:55;;;;;;;7.97;3.53;;;20.30;99.90;;;;;;5179632;28;20525;-55
2022/06/09 13:26:34;;;;;;;4.63;3.47;;;20.50;99.90;;;;;;5188703;28;20439;-55
2022/06/09 13:29:30;;;;;;;7.27;4.30;;;20.80;99.90;;;;;;5189103;28;20441;-55
2022/06/09 13:32:25;;;;;;;3.53;3.43;;;21.00;99.90;;;;;;5169428;28;20459;-54
2022/06/09 13:34:59;;;;;;;3.87;3.57;;;21.30;99.90;;;;;;5188069;28;20803;-56
2022/06/09 13:37:42;;;;;;;5.03;4.00;;;21.50;99.90;;;;;;5214918;28;20429;-55
2022/06/09 13:40:20;;;;;;;16.47;7.80;;;21.80;99.90;;;;;;5180422;28;20443;-55
2022/06/09 13:42:57;;;;;;;5.27;4.53;;;21.90;99.90;;;;;;5173874;28;20444;-55
2022/06/09 13:45:34;;;;;;;8.90;7.17;;;22.00;99.90;;;;;;5213977;28;20454;-55
2022/06/09 13:48:22;;;;;;;6.70;4.53;;;22.00;99.90;;;;;;5189916;28;20421;-57
2022/06/09 13:51:01;;;;;;;6.23;4.90;;;22.10;99.90;;;;;;5188146;28;20502;-56
2022/06/09 13:53:45;;;;;;;10.53;3.93;;;22.00;99.90;;;;;;5173994;28;20463;-54
2022/06/09 13:56:17;;;;;;;4.80;4.10;;;22.00;99.90;;;;;;5176925;28;20562;-56